createdAt,value
2023-05-10T00:00:02.008Z,100869.03
2023-05-10T00:02:28.561Z,100868.22
2023-05-10T00:04:55.103Z,100871.31
2023-05-10T00:07:22.056Z,100868.22
2023-05-10T00:09:48.532Z,100867.84
2023-05-10T00:12:15.147Z,100867.84
2023-05-10T00:14:41.661Z,100867.06
2023-05-10T00:17:08.210Z,100863.47
2023-05-10T00:19:34.688Z,100862.25
2023-05-10T00:22:01.346Z,100866.56
2023-05-10T00:24:27.874Z,100858.03
2023-05-10T00:26:54.358Z,100852.28
2023-05-10T00:29:20.863Z,100863.31
2023-05-10T00:31:47.366Z,100859.06
2023-05-10T00:34:13.844Z,100852.09
2023-05-10T00:36:40.293Z,100857.97
2023-05-10T00:39:07.091Z,100853.69
2023-05-10T00:41:33.768Z,100849.31
2023-05-10T00:44:00.623Z,100855.84
2023-05-10T00:46:27.876Z,100854.28
2023-05-10T00:48:54.703Z,100853.44
2023-05-10T00:51:21.672Z,100853.31
2023-05-10T00:53:49.203Z,100852.47
2023-05-10T00:56:16.812Z,100843.16
2023-05-10T00:58:43.552Z,100855.13
2023-05-10T01:01:10.685Z,100849.25
2023-05-10T01:03:37.806Z,100848.47
2023-05-10T01:06:04.458Z,100857.34
2023-05-10T01:08:31.155Z,100857.66
2023-05-10T01:10:58.120Z,100858.78
2023-05-10T01:13:31.088Z,100864.63
2023-05-10T01:15:58.627Z,100853.69
2023-05-10T01:18:27.816Z,100861.44
2023-05-10T01:21:22.205Z,100856.69
2023-05-10T01:24:20.451Z,100854.72
2023-05-10T01:27:16.221Z,100857.44
2023-05-10T01:30:21.776Z,100862.47
2023-05-10T01:33:02.038Z,100870.13
2023-05-10T01:35:42.758Z,100856.00
2023-05-10T01:38:17.306Z,100855.56
2023-05-10T01:40:49.094Z,100863.38
2023-05-10T01:43:23.997Z,100872.00
2023-05-10T01:46:11.303Z,100861.91
2023-05-10T01:48:55.082Z,100867.34
2023-05-10T01:51:26.178Z,100867.75
2023-05-10T01:54:01.331Z,100867.34
2023-05-10T01:56:30.445Z,100875.50
2023-05-10T01:58:58.155Z,100868.03
2023-05-10T02:01:27.116Z,100874.63
2023-05-10T02:03:56.649Z,100879.72
2023-05-10T02:06:25.063Z,100874.28
2023-05-10T02:08:53.802Z,100876.22
2023-05-10T02:11:21.947Z,100863.75
2023-05-10T02:13:51.356Z,100883.94
2023-05-10T02:16:19.283Z,100871.50
2023-05-10T02:18:47.357Z,100884.31
2023-05-10T02:21:15.584Z,100890.91
2023-05-10T02:23:43.572Z,100889.34
2023-05-10T02:26:11.633Z,100891.19
2023-05-10T02:28:39.973Z,100894.69
2023-05-10T02:31:07.922Z,100888.47
2023-05-10T02:33:35.737Z,100895.41
2023-05-10T02:36:04.459Z,100896.94
2023-05-10T02:38:33.530Z,100899.91
2023-05-10T02:41:00.568Z,100904.44
2023-05-10T02:43:28.904Z,100906.28
2023-05-10T02:45:55.532Z,100906.19
2023-05-10T02:48:22.137Z,100908.06
2023-05-10T02:50:52.461Z,100900.59
2023-05-10T02:53:32.907Z,100903.25
2023-05-10T02:56:02.667Z,100905.56
2023-05-10T02:58:29.223Z,100907.19
2023-05-10T03:00:55.809Z,100906.50
2023-05-10T03:03:22.296Z,100898.25
2023-05-10T03:05:48.762Z,100905.63
2023-05-10T03:08:15.411Z,100909.06
2023-05-10T03:11:27.947Z,100900.91
2023-05-10T03:14:11.306Z,100901.63
2023-05-10T03:16:47.850Z,100915.56
2023-05-10T03:19:55.263Z,100905.75
2023-05-10T03:22:38.999Z,100904.97
2023-05-10T03:25:09.268Z,100915.84
2023-05-10T03:27:37.722Z,100917.06
2023-05-10T03:30:06.234Z,100918.25
2023-05-10T03:32:35.393Z,100912.94
2023-05-10T03:35:03.266Z,100918.72
2023-05-10T03:37:29.793Z,100912.94
2023-05-10T03:39:56.289Z,100917.56
2023-05-10T03:42:22.786Z,100924.28
2023-05-10T03:44:50.475Z,100926.94
2023-05-10T03:47:16.969Z,100923.88
2023-05-10T03:49:43.427Z,100923.03
2023-05-10T03:52:09.946Z,100930.81
2023-05-10T03:54:36.463Z,100924.50
2023-05-10T03:57:03.916Z,100925.75
2023-05-10T03:59:31.089Z,100926.09
2023-05-10T04:01:57.627Z,100932.75
2023-05-10T04:04:24.324Z,100924.16
2023-05-10T04:06:50.977Z,100933.00
2023-05-10T04:09:18.130Z,100933.00
2023-05-10T04:11:44.639Z,100939.69
2023-05-10T04:14:11.122Z,100935.84
2023-05-10T04:16:37.663Z,100937.75
2023-05-10T04:19:04.745Z,100938.09
2023-05-10T04:21:31.518Z,100933.91
2023-05-10T04:23:57.991Z,100928.00
2023-05-10T04:26:26.011Z,100932.31
2023-05-10T04:28:52.522Z,100939.69
2023-05-10T04:31:19.082Z,100936.97
2023-05-10T04:33:45.821Z,100935.38
2023-05-10T04:36:12.312Z,100936.63
2023-05-10T04:38:38.825Z,100931.97
2023-05-10T04:41:09.360Z,100930.47
2023-05-10T04:43:37.702Z,100928.53
2023-05-10T04:46:05.573Z,100939.41
2023-05-10T04:48:32.117Z,100935.13
2023-05-10T04:50:58.625Z,100936.75
2023-05-10T04:53:25.161Z,100946.53
2023-05-10T04:55:51.647Z,100945.38
2023-05-10T04:58:18.125Z,100945.81
2023-05-10T05:00:45.167Z,100950.88
2023-05-10T05:03:11.841Z,100947.00
2023-05-10T05:05:38.454Z,100945.44
2023-05-10T05:08:04.966Z,100943.16
2023-05-10T05:10:31.390Z,100949.03
2023-05-10T05:12:57.859Z,100946.31
2023-05-10T05:15:24.439Z,100949.03
2023-05-10T05:17:50.938Z,100954.13
2023-05-10T05:20:18.273Z,100958.41
2023-05-10T05:22:44.851Z,100954.47
2023-05-10T05:25:12.635Z,100972.03
2023-05-10T05:27:39.124Z,100965.38
2023-05-10T05:30:06.360Z,100962.97
2023-05-10T05:32:32.870Z,100970.03
2023-05-10T05:34:59.577Z,100965.06
2023-05-10T05:37:26.192Z,100969.72
2023-05-10T05:39:52.752Z,100967.78
2023-05-10T05:42:20.362Z,100970.53
2023-05-10T05:44:46.869Z,100975.91
2023-05-10T05:47:13.362Z,100984.84
2023-05-10T05:49:40.353Z,100979.03
2023-05-10T05:52:06.874Z,100977.09
2023-05-10T05:54:33.482Z,100980.56
2023-05-10T05:57:01.405Z,100986.34
2023-05-10T05:59:29.036Z,100987.47
2023-05-10T06:01:55.719Z,100990.66
2023-05-10T06:04:22.301Z,100991.88
2023-05-10T06:06:48.812Z,100987.22
2023-05-10T06:09:15.410Z,100988.41
2023-05-10T06:11:42.017Z,100996.22
2023-05-10T06:14:09.005Z,100998.25
2023-05-10T06:16:35.822Z,101000.97
2023-05-10T06:19:03.593Z,100998.94
2023-05-10T06:21:31.033Z,101006.25
2023-05-10T06:23:57.784Z,101015.19
2023-05-10T06:26:24.475Z,101008.13
2023-05-10T06:28:50.946Z,101013.56
2023-05-10T06:31:17.595Z,101007.75
2023-05-10T06:33:44.155Z,101017.13
2023-05-10T06:36:10.751Z,101016.78
2023-05-10T06:38:37.352Z,101009.75
2023-05-10T06:41:04.099Z,101017.22
2023-05-10T06:43:30.774Z,101022.75
2023-05-10T06:45:57.319Z,101020.81
2023-05-10T06:48:24.109Z,101024.69
2023-05-10T06:50:50.626Z,101035.13
2023-05-10T06:53:17.211Z,101034.78
2023-05-10T06:55:43.678Z,101036.34
2023-05-10T06:58:10.155Z,101038.47
2023-05-10T07:00:40.184Z,101032.72
2023-05-10T07:03:07.144Z,101039.38
2023-05-10T07:05:33.783Z,101037.19
2023-05-10T07:08:00.825Z,101036.81
2023-05-10T07:10:27.589Z,101040.06
2023-05-10T07:12:54.249Z,101039.09
2023-05-10T07:15:20.967Z,101044.16
2023-05-10T07:17:47.610Z,101049.88
2023-05-10T07:20:14.264Z,101049.09
2023-05-10T07:22:40.790Z,101051.56
2023-05-10T07:25:07.649Z,101061.91
2023-05-10T07:27:34.120Z,101059.28
2023-05-10T07:30:01.498Z,101055.13
2023-05-10T07:32:28.271Z,101063.28
2023-05-10T07:34:54.924Z,101070.00
2023-05-10T07:37:21.399Z,101076.59
2023-05-10T07:39:47.927Z,101076.28
2023-05-10T07:42:14.470Z,101077.88
2023-05-10T07:44:40.912Z,101082.72
2023-05-10T07:47:07.421Z,101074.44
2023-05-10T07:49:33.863Z,101077.88
2023-05-10T07:52:00.623Z,101085.06
2023-05-10T07:54:27.146Z,101082.44
2023-05-10T07:56:53.596Z,101086.44
2023-05-10T07:59:20.148Z,101082.31
2023-05-10T08:01:46.663Z,101081.50
2023-05-10T08:04:13.343Z,101095.41
2023-05-10T08:06:41.246Z,101084.66
2023-05-10T08:09:08.330Z,101095.34
2023-05-10T08:11:35.315Z,101095.19
2023-05-10T08:14:02.380Z,101106.25
2023-05-10T08:16:29.924Z,101102.88
2023-05-10T08:18:56.675Z,101103.53
2023-05-10T08:21:23.368Z,101110.56
2023-05-10T08:23:50.232Z,101114.00
2023-05-10T08:26:16.783Z,101118.31
2023-05-10T08:28:43.300Z,101115.31
2023-05-10T08:31:09.853Z,101116.94
2023-05-10T08:33:36.476Z,101120.09
2023-05-10T08:36:02.960Z,101128.38
2023-05-10T08:38:29.506Z,101131.16
2023-05-10T08:41:00.110Z,101127.00
2023-05-10T08:43:31.031Z,101126.69
2023-05-10T08:46:01.768Z,101132.72
2023-05-10T08:48:30.473Z,101126.47
2023-05-10T08:50:59.310Z,101133.88
2023-05-10T08:53:28.223Z,101133.41
2023-05-10T08:55:55.398Z,101144.28
2023-05-10T08:58:22.017Z,101140.03
2023-05-10T09:00:51.385Z,101139.31
2023-05-10T09:03:18.736Z,101145.56
2023-05-10T09:05:45.852Z,101150.53
2023-05-10T09:08:14.027Z,101144.06
2023-05-10T09:10:41.223Z,101152.44
2023-05-10T09:13:10.749Z,101155.03
2023-05-10T09:15:37.229Z,101149.78
2023-05-10T09:18:04.021Z,101154.19
2023-05-10T09:20:30.780Z,101150.00
2023-05-10T09:22:57.677Z,101156.56
2023-05-10T09:25:24.115Z,101153.41
2023-05-10T09:27:51.137Z,101160.69
2023-05-10T09:30:24.812Z,101156.16
2023-05-10T09:32:51.922Z,101157.28
2023-05-10T09:35:21.135Z,101161.13
2023-05-10T09:37:51.588Z,101161.97
2023-05-10T09:40:21.007Z,101172.38
2023-05-10T09:42:56.500Z,101175.53
2023-05-10T09:45:24.438Z,101176.78
2023-05-10T09:47:51.297Z,101186.22
2023-05-10T09:50:18.085Z,101173.13
2023-05-10T09:53:00.904Z,101180.94
2023-05-10T09:55:39.918Z,101180.22
2023-05-10T09:58:11.142Z,101173.06
2023-05-10T10:00:39.788Z,101179.97
2023-05-10T10:03:07.307Z,101179.16
2023-05-10T10:05:35.898Z,101174.66
2023-05-10T10:08:06.337Z,101179.28
2023-05-10T10:10:34.586Z,101175.69
2023-05-10T10:13:01.333Z,101187.78
2023-05-10T10:15:28.211Z,101183.88
2023-05-10T10:17:55.288Z,101203.97
2023-05-10T10:20:23.650Z,101194.41
2023-05-10T10:22:50.366Z,101195.75
2023-05-10T10:25:18.624Z,101193.63
2023-05-10T10:27:48.401Z,101200.91
2023-05-10T10:30:21.480Z,101203.13
2023-05-10T10:33:28.971Z,101198.47
2023-05-10T10:35:58.845Z,101205.09
2023-05-10T10:38:25.672Z,101206.34
2023-05-10T10:41:27.558Z,101196.66
2023-05-10T10:44:25.426Z,101193.09
2023-05-10T10:47:06.373Z,101209.81
2023-05-10T10:49:37.307Z,101207.44
2023-05-10T10:52:23.185Z,101204.28
2023-05-10T10:54:54.574Z,101211.75
2023-05-10T10:57:22.736Z,101195.34
2023-05-10T10:59:49.592Z,101200.19
2023-05-10T11:02:47.035Z,101201.09
2023-05-10T11:05:25.951Z,101200.81
2023-05-10T11:07:55.008Z,101198.63
2023-05-10T11:10:22.482Z,101200.56
2023-05-10T11:13:05.013Z,101199.09
2023-05-10T11:15:36.798Z,101202.09
2023-05-10T11:18:20.233Z,101196.38
2023-05-10T11:21:14.322Z,101192.19
2023-05-10T11:23:40.845Z,101197.66
2023-05-10T11:26:12.087Z,101200.13
2023-05-10T11:28:49.591Z,101196.78
2023-05-10T11:31:20.446Z,101205.50
2023-05-10T11:33:52.770Z,101207.13
2023-05-10T11:36:21.742Z,101208.22
2023-05-10T11:38:49.307Z,101207.53
2023-05-10T11:41:18.274Z,101208.88
2023-05-10T11:43:47.763Z,101208.78
2023-05-10T11:46:14.698Z,101204.66
2023-05-10T11:48:42.109Z,101206.47
2023-05-10T11:51:12.297Z,101206.97
2023-05-10T11:53:39.219Z,101203.53
2023-05-10T11:56:12.450Z,101210.19
2023-05-10T11:58:40.249Z,101198.97
2023-05-10T12:01:08.784Z,101201.47
2023-05-10T12:03:35.973Z,101198.59
2023-05-10T12:06:03.625Z,101202.91
2023-05-10T12:08:31.939Z,101205.91
2023-05-10T12:11:09.432Z,101202.75
2023-05-10T12:13:47.472Z,101207.34
2023-05-10T12:16:19.318Z,101209.16
2023-05-10T12:18:49.162Z,101210.13
2023-05-10T12:21:16.238Z,101226.88
2023-05-10T12:23:43.040Z,101223.66
2023-05-10T12:26:12.798Z,101217.13
2023-05-10T12:28:40.477Z,101219.22
2023-05-10T12:31:08.052Z,101210.66
2023-05-10T12:33:39.977Z,101217.78
2023-05-10T12:36:07.729Z,101212.31
2023-05-10T12:38:39.313Z,101218.97
2023-05-10T12:41:08.197Z,101222.78
2023-05-10T12:43:35.943Z,101224.22
2023-05-10T12:46:06.943Z,101230.78
2023-05-10T12:48:35.000Z,101236.47
2023-05-10T12:51:02.439Z,101242.53
2023-05-10T12:53:29.156Z,101245.81
2023-05-10T12:55:55.970Z,101247.63
2023-05-10T13:00:54.403Z,101256.69
2023-05-10T13:03:21.049Z,101259.31
2023-05-10T13:05:47.492Z,101260.84
2023-05-10T13:08:14.245Z,101262.44
2023-05-10T13:10:41.271Z,101265.63
2023-05-10T13:13:09.282Z,101274.50
2023-05-10T13:15:36.080Z,101275.72
2023-05-10T13:18:02.845Z,101269.69
2023-05-10T13:20:29.365Z,101279.03
2023-05-10T13:22:56.312Z,101282.13
2023-05-10T13:25:22.812Z,101281.75
2023-05-10T13:27:49.256Z,101275.16
2023-05-10T13:30:16.189Z,101295.56
2023-05-10T13:32:42.826Z,101285.72
2023-05-10T13:35:09.562Z,101292.53
2023-05-10T13:37:38.190Z,101291.16
2023-05-10T13:40:05.873Z,101289.38
2023-05-10T13:42:34.374Z,101291.84
2023-05-10T13:45:02.763Z,101289.78
2023-05-10T13:47:29.628Z,101288.09
2023-05-10T13:49:56.259Z,101294.97
2023-05-10T13:52:22.771Z,101301.25
2023-05-10T13:54:49.254Z,101296.06
2023-05-10T13:57:17.723Z,101288.00
2023-05-10T13:59:44.286Z,101294.16
2023-05-10T14:02:13.226Z,101287.91
2023-05-10T14:04:39.878Z,101296.88
2023-05-10T14:07:06.609Z,101296.09
2023-05-10T14:09:33.086Z,101301.47
2023-05-10T14:11:59.753Z,101291.72
2023-05-10T14:14:26.328Z,101304.19
2023-05-10T14:16:53.031Z,101294.78
2023-05-10T14:19:20.120Z,101293.72
2023-05-10T14:21:46.662Z,101290.63
2023-05-10T14:24:13.137Z,101289.44
2023-05-10T14:26:39.643Z,101293.00
2023-05-10T14:29:06.723Z,101287.56
2023-05-10T14:31:33.177Z,101296.19
2023-05-10T14:34:00.226Z,101295.28
2023-05-10T14:36:26.839Z,101295.69
2023-05-10T14:38:53.476Z,101292.72
2023-05-10T14:41:20.013Z,101298.31
2023-05-10T14:43:46.958Z,101296.38
2023-05-10T14:46:13.649Z,101301.97
2023-05-10T14:48:40.533Z,101293.88
2023-05-10T14:51:07.585Z,101291.22
2023-05-10T14:53:34.469Z,101287.84
2023-05-10T14:56:02.311Z,101283.59
2023-05-10T14:58:28.975Z,101292.38
2023-05-10T15:00:55.478Z,101285.84
2023-05-10T15:03:22.362Z,101279.03
2023-05-10T15:05:48.990Z,101283.16
2023-05-10T15:08:15.497Z,101274.47
2023-05-10T15:10:42.568Z,101271.50
2023-05-10T15:13:09.056Z,101282.91
2023-05-10T15:15:35.560Z,101277.41
2023-05-10T15:18:02.097Z,101281.28
2023-05-10T15:20:28.881Z,101280.06
2023-05-10T15:22:55.422Z,101283.41
2023-05-10T15:25:22.086Z,101291.94
2023-05-10T15:27:48.676Z,101293.88
2023-05-10T15:30:15.618Z,101292.56
2023-05-10T15:32:42.167Z,101304.34
2023-05-10T15:35:10.514Z,101296.94
2023-05-10T15:37:37.653Z,101303.66
2023-05-10T15:40:05.125Z,101303.13
2023-05-10T15:42:32.589Z,101301.91
2023-05-10T15:44:59.382Z,101303.63
2023-05-10T15:47:26.897Z,101303.56
2023-05-10T15:49:53.438Z,101310.84
2023-05-10T15:52:21.545Z,101315.66
2023-05-10T15:54:48.042Z,101315.94
2023-05-10T15:57:14.492Z,101318.06
2023-05-10T15:59:41.593Z,101316.63
2023-05-10T16:02:10.806Z,101321.81
2023-05-10T16:04:37.796Z,101320.72
2023-05-10T16:07:04.352Z,101324.91
2023-05-10T16:09:30.931Z,101325.28
2023-05-10T16:11:57.603Z,101332.03
2023-05-10T16:14:24.733Z,101326.59
2023-05-10T16:16:51.598Z,101328.31
2023-05-10T16:19:18.489Z,101330.38
2023-05-10T16:21:45.179Z,101329.59
2023-05-10T16:24:12.287Z,101325.78
2023-05-10T16:26:41.099Z,101330.47
2023-05-10T16:29:08.937Z,101332.25
2023-05-10T16:31:35.610Z,101329.47
2023-05-10T16:34:02.226Z,101336.19
2023-05-10T16:36:29.579Z,101336.41
2023-05-10T16:38:56.153Z,101328.69
2023-05-10T16:41:23.266Z,101336.03
2023-05-10T16:43:50.163Z,101336.06
2023-05-10T16:46:16.749Z,101338.53
2023-05-10T16:48:43.479Z,101331.53
2023-05-10T16:51:10.005Z,101334.84
2023-05-10T16:53:36.523Z,101335.84
2023-05-10T16:56:03.678Z,101332.66
2023-05-10T16:58:30.126Z,101342.56
2023-05-10T17:00:56.658Z,101331.97
2023-05-10T17:03:23.549Z,101332.03
2023-05-10T17:05:50.180Z,101340.53
2023-05-10T17:08:16.880Z,101339.44
2023-05-10T17:10:43.383Z,101343.50
2023-05-10T17:13:10.694Z,101343.03
2023-05-10T17:15:38.675Z,101345.31
2023-05-10T17:18:06.901Z,101352.75
2023-05-10T17:20:34.219Z,101346.44
2023-05-10T17:23:02.605Z,101350.63
2023-05-10T17:25:29.670Z,101353.91
2023-05-10T17:27:56.121Z,101353.81
2023-05-10T17:30:26.395Z,101355.41
2023-05-10T17:32:54.247Z,101353.53
2023-05-10T17:35:21.494Z,101361.25
2023-05-10T17:37:48.085Z,101366.38
2023-05-10T17:40:14.789Z,101368.09
2023-05-10T17:42:41.846Z,101360.69
2023-05-10T17:45:09.106Z,101371.41
2023-05-10T17:47:35.754Z,101370.56
2023-05-10T17:50:02.327Z,101373.59
2023-05-10T17:52:31.424Z,101372.38
2023-05-10T17:54:59.793Z,101373.47
2023-05-10T17:57:26.485Z,101374.69
2023-05-10T17:59:52.940Z,101372.97
2023-05-10T18:02:19.399Z,101385.38
2023-05-10T18:04:46.082Z,101375.66
2023-05-10T18:07:12.627Z,101383.63
2023-05-10T18:09:39.070Z,101380.81
2023-05-10T18:12:06.168Z,101381.13
2023-05-10T18:14:40.659Z,101380.13
2023-05-10T18:17:07.741Z,101384.44
2023-05-10T18:19:34.515Z,101384.75
2023-05-10T18:22:01.041Z,101382.38
2023-05-10T18:24:38.299Z,101389.34
2023-05-10T18:27:06.663Z,101384.81
2023-05-10T18:29:33.184Z,101379.06
2023-05-10T18:31:59.708Z,101384.16
2023-05-10T18:34:26.270Z,101380.91
2023-05-10T18:36:52.994Z,101384.38
2023-05-10T18:39:19.714Z,101387.28
2023-05-10T18:41:46.357Z,101376.38
2023-05-10T18:44:12.860Z,101383.03
2023-05-10T18:46:39.526Z,101384.91
2023-05-10T18:49:08.351Z,101384.56
2023-05-10T18:51:35.004Z,101381.38
2023-05-10T18:54:01.548Z,101387.16
2023-05-10T18:56:28.213Z,101400.81
2023-05-10T18:58:54.801Z,101402.66
2023-05-10T19:01:21.440Z,101398.66
2023-05-10T19:03:48.019Z,101402.47
2023-05-10T19:06:14.510Z,101396.47
2023-05-10T19:08:40.992Z,101402.31
2023-05-10T19:11:07.577Z,101403.88
2023-05-10T19:13:34.299Z,101403.81
2023-05-10T19:16:06.163Z,101412.53
2023-05-10T19:18:33.739Z,101411.66
2023-05-10T19:21:04.431Z,101417.47
2023-05-10T19:23:34.649Z,101415.91
2023-05-10T19:26:01.612Z,101417.84
2023-05-10T19:28:28.128Z,101417.75
2023-05-10T19:30:54.642Z,101412.28
2023-05-10T19:33:21.147Z,101421.28
2023-05-10T19:35:50.125Z,101420.41
2023-05-10T19:38:16.721Z,101423.50
2023-05-10T19:40:43.269Z,101427.03
2023-05-10T19:43:09.759Z,101434.00
2023-05-10T19:45:36.287Z,101430.75
2023-05-10T19:48:03.017Z,101438.09
2023-05-10T19:50:29.609Z,101443.47
2023-05-10T19:52:58.090Z,101438.69
2023-05-10T19:55:30.482Z,101442.47
2023-05-10T19:57:57.564Z,101442.41
2023-05-10T20:00:25.426Z,101446.34
2023-05-10T20:02:51.946Z,101442.84
2023-05-10T20:05:18.602Z,101453.03
2023-05-10T20:07:45.648Z,101449.81
2023-05-10T20:10:12.166Z,101443.44
2023-05-10T20:12:38.647Z,101447.34
2023-05-10T20:15:07.489Z,101447.88
2023-05-10T20:17:35.478Z,101454.19
2023-05-10T20:20:02.130Z,101449.97
2023-05-10T20:22:28.583Z,101453.75
2023-05-10T20:24:56.251Z,101446.97
2023-05-10T20:27:22.864Z,101463.00
2023-05-10T20:29:49.398Z,101461.41
2023-05-10T20:32:16.059Z,101456.41
2023-05-10T20:34:42.525Z,101454.47
2023-05-10T20:37:09.205Z,101455.63
2023-05-10T20:39:35.817Z,101458.25
2023-05-10T20:42:02.407Z,101453.88
2023-05-10T20:44:28.979Z,101460.47
2023-05-10T20:46:55.567Z,101462.06
2023-05-10T20:49:22.040Z,101459.75
2023-05-10T20:51:48.615Z,101464.50
2023-05-10T20:54:15.062Z,101461.78
2023-05-10T20:56:41.605Z,101460.13
2023-05-10T20:59:08.034Z,101458.44
2023-05-10T21:01:34.512Z,101456.00
2023-05-10T21:04:00.961Z,101452.38
2023-05-10T21:06:27.456Z,101461.72
2023-05-10T21:08:53.890Z,101450.38
2023-05-10T21:11:20.823Z,101465.16
2023-05-10T21:13:47.344Z,101463.22
2023-05-10T21:16:13.840Z,101464.44
2023-05-10T21:18:40.335Z,101472.63
2023-05-10T21:21:06.908Z,101457.31
2023-05-10T21:23:34.696Z,101458.81
2023-05-10T21:26:05.806Z,101454.78
2023-05-10T21:28:32.357Z,101451.59
2023-05-10T21:30:58.892Z,101453.16
2023-05-10T21:33:25.376Z,101454.78
2023-05-10T21:35:52.724Z,101451.59
2023-05-10T21:38:19.254Z,101451.25
2023-05-10T21:40:45.689Z,101449.31
2023-05-10T21:43:12.200Z,101452.75
2023-05-10T21:45:38.783Z,101453.44
2023-05-10T21:48:05.340Z,101450.78
2023-05-10T21:50:32.021Z,101453.63
2023-05-10T21:52:58.619Z,101455.47
2023-05-10T21:55:25.297Z,101457.03
2023-05-10T21:57:51.788Z,101457.50
2023-05-10T22:00:19.710Z,101460.66
2023-05-10T22:02:46.860Z,101466.00
2023-05-10T22:05:13.546Z,101466.28
2023-05-10T22:07:40.372Z,101466.19
2023-05-10T22:10:09.185Z,101462.78
2023-05-10T22:12:35.807Z,101469.09
2023-05-10T22:17:32.006Z,101465.50
2023-05-10T22:19:58.505Z,101466.22
2023-05-10T22:22:25.062Z,101467.16
2023-05-10T22:24:51.589Z,101460.91
2023-05-10T22:27:18.141Z,101464.00
2023-05-10T22:29:46.367Z,101460.22
2023-05-10T22:32:12.828Z,101461.00
2023-05-10T22:34:39.337Z,101466.38
2023-05-10T22:37:05.912Z,101465.13
2023-05-10T22:39:33.163Z,101460.91
2023-05-10T22:41:59.654Z,101466.00
2023-05-10T22:44:26.152Z,101469.44
2023-05-10T22:46:52.797Z,101469.34
2023-05-10T22:49:19.442Z,101461.09
2023-05-10T22:51:46.495Z,101468.78
2023-05-10T22:54:12.998Z,101462.66
2023-05-10T22:56:39.533Z,101460.38
2023-05-10T22:59:06.108Z,101467.06
2023-05-10T23:01:32.637Z,101468.63
2023-05-10T23:03:59.157Z,101471.81
2023-05-10T23:06:27.318Z,101477.34
2023-05-10T23:08:54.689Z,101481.94
2023-05-10T23:11:22.000Z,101487.38
2023-05-10T23:13:48.618Z,101481.22
2023-05-10T23:16:15.094Z,101485.63
2023-05-10T23:18:41.782Z,101486.09
2023-05-10T23:21:08.292Z,101484.50
2023-05-10T23:23:34.997Z,101482.72
2023-05-10T23:26:02.080Z,101484.19
2023-05-10T23:28:28.634Z,101483.53
2023-05-10T23:30:56.691Z,101488.25
2023-05-10T23:33:23.664Z,101485.97
2023-05-10T23:35:50.459Z,101487.38
2023-05-10T23:38:17.197Z,101491.16
2023-05-10T23:40:43.690Z,101490.91
2023-05-10T23:43:10.231Z,101486.25
2023-05-10T23:45:36.741Z,101486.59
2023-05-10T23:48:03.327Z,101488.19
2023-05-10T23:50:29.904Z,101483.75
2023-05-10T23:52:56.448Z,101486.84
2023-05-10T23:55:22.955Z,101487.19
2023-05-10T23:57:49.393Z,101486.94
